Time;durP1;ratioP1;P1;durP2;ratioP2;P2;SDS_P1;SDS_P2;PMS_P1;PMS_P2;Temp;Humidity;BMP_temperature;BMP_pressure;BME280_temperature;BME280_humidity;BME280_pressure;Samples;Min_cycle;Max_cycle;Signal;HPM_P1;HPM_P2
2021/11/18 00:01:55;;;;;;;97.43;41.00;;;3.50;99.90;;;;;;5012361;28;20619;-73
2021/11/18 00:04:22;;;;;;;108.45;45.80;;;3.50;99.90;;;;;;5013618;28;20495;-73
2021/11/18 00:06:49;;;;;;;121.97;59.50;;;3.50;99.90;;;;;;5012164;28;20445;-73
2021/11/18 00:09:16;;;;;;;111.18;53.33;;;3.50;99.90;;;;;;5012138;28;20025;-73
2021/11/18 00:11:42;;;;;;;100.80;46.28;;;3.50;99.90;;;;;;5013367;28;20030;-73
2021/11/18 00:14:08;;;;;;;96.22;41.97;;;3.50;99.90;;;;;;5013459;28;20026;-73
2021/11/18 00:16:35;;;;;;;90.28;39.17;;;3.50;99.90;;;;;;5013281;28;20029;-73
2021/11/18 00:19:00;;;;;;;93.75;40.47;;;3.50;99.90;;;;;;5014264;28;20038;-73
2021/11/18 00:21:29;;;;;;;92.18;39.38;;;3.50;99.90;;;;;;5033014;28;20108;-73
2021/11/18 00:23:57;;;;;;;88.65;39.53;;;3.50;99.90;;;;;;5032655;28;20487;-73
2021/11/18 00:26:25;;;;;;;99.43;40.15;;;3.50;99.90;;;;;;5032956;28;20029;-73
2021/11/18 00:28:51;;;;;;;88.13;39.38;;;3.40;99.90;;;;;;5032945;28;20394;-73
2021/11/18 00:31:21;;;;;;;95.70;41.95;;;3.50;99.90;;;;;;5032849;28;20025;-73
2021/11/18 00:33:47;;;;;;;95.18;40.92;;;3.50;99.90;;;;;;5033270;28;20018;-73
2021/11/18 00:36:14;;;;;;;88.07;38.97;;;3.50;99.90;;;;;;5032739;28;20513;-73
2021/11/18 00:38:42;;;;;;;92.13;39.85;;;3.50;99.90;;;;;;5032704;28;20462;-73
2021/11/18 00:41:08;;;;;;;85.65;35.55;;;3.50;99.90;;;;;;5032782;28;20034;-73
2021/11/18 00:43:34;;;;;;;83.55;36.10;;;3.50;99.90;;;;;;5032829;28;20018;-73
2021/11/18 00:46:00;;;;;;;86.25;38.08;;;3.40;99.90;;;;;;5031468;28;20387;-73
2021/11/18 00:48:25;;;;;;;90.20;37.40;;;3.40;99.90;;;;;;5034108;28;20021;-73
2021/11/18 00:50:58;;;;;;;84.13;37.80;;;3.50;99.90;;;;;;5036815;28;20030;-73
2021/11/18 00:53:24;;;;;;;90.60;39.13;;;3.40;99.90;;;;;;5037011;28;20049;-73
2021/11/18 00:55:50;;;;;;;79.80;35.00;;;3.50;99.90;;;;;;5036786;28;20493;-73
2021/11/18 00:58:16;;;;;;;81.68;35.53;;;3.50;99.90;;;;;;5035396;28;20120;-73
2021/11/18 01:00:44;;;;;;;85.40;37.72;;;3.50;99.90;;;;;;5036614;28;20471;-73
2021/11/18 01:03:11;;;;;;;77.85;34.50;;;3.40;99.90;;;;;;5035390;28;20117;-73
2021/11/18 01:05:40;;;;;;;81.30;37.72;;;3.50;99.90;;;;;;5036546;28;20101;-73
2021/11/18 01:08:06;;;;;;;76.82;34.00;;;3.40;99.90;;;;;;5036630;28;20052;-73
2021/11/18 01:10:37;;;;;;;81.90;36.85;;;3.40;99.90;;;;;;5036306;28;20037;-73
2021/11/18 01:13:04;;;;;;;78.28;37.17;;;3.50;99.90;;;;;;5036525;28;20021;-73
2021/11/18 01:15:34;;;;;;;78.57;36.97;;;3.50;99.90;;;;;;5036401;28;20044;-73
2021/11/18 01:17:59;;;;;;;80.18;36.42;;;3.50;99.90;;;;;;5036361;28;20034;-73
2021/11/18 01:20:25;;;;;;;78.75;35.15;;;3.50;99.90;;;;;;5036445;28;20025;-73
2021/11/18 01:22:54;;;;;;;89.28;36.40;;;3.50;99.90;;;;;;5036269;28;20537;-73
2021/11/18 01:25:21;;;;;;;74.22;36.92;;;3.50;99.90;;;;;;5034886;28;20049;-73
2021/11/18 01:27:47;;;;;;;81.65;36.13;;;3.50;99.90;;;;;;5036208;28;20041;-73
2021/11/18 01:30:18;;;;;;;77.15;35.25;;;3.50;99.90;;;;;;5034712;28;20021;-74
2021/11/18 01:32:44;;;;;;;76.40;33.33;;;3.50;99.90;;;;;;5034655;28;20025;-74
2021/11/18 01:35:10;;;;;;;77.03;34.05;;;3.50;99.90;;;;;;5036044;28;20044;-74
2021/11/18 01:37:36;;;;;;;75.18;34.25;;;3.50;99.90;;;;;;5034242;28;20037;-74
2021/11/18 01:40:05;;;;;;;79.40;36.15;;;3.50;99.90;;;;;;5035952;28;20025;-74
2021/11/18 01:42:31;;;;;;;78.35;35.10;;;3.50;99.90;;;;;;5035851;28;20466;-74
2021/11/18 01:44:57;;;;;;;79.22;35.58;;;3.50;99.90;;;;;;5035858;28;20033;-74
2021/11/18 01:47:23;;;;;;;79.63;33.58;;;3.50;99.90;;;;;;5035888;28;20032;-74
2021/11/18 01:49:49;;;;;;;73.72;33.45;;;3.50;99.90;;;;;;5035724;28;20107;-74
2021/11/18 01:52:20;;;;;;;70.60;32.83;;;3.50;99.90;;;;;;5035841;28;20040;-74
2021/11/18 01:54:46;;;;;;;76.55;32.33;;;3.50;99.90;;;;;;5035618;28;20029;-74
2021/11/18 01:57:16;;;;;;;73.07;32.30;;;3.50;99.90;;;;;;5035581;28;20026;-74
2021/11/18 01:59:46;;;;;;;75.75;34.25;;;3.50;99.90;;;;;;5033007;28;20497;-74
2021/11/18 02:02:14;;;;;;;70.47;32.15;;;3.50;99.90;;;;;;5035598;28;20075;-74
2021/11/18 02:04:55;;;;;;;76.75;35.13;;;3.50;99.90;;;;;;5034070;28;20017;-74
2021/11/18 02:07:21;;;;;;;68.15;32.15;;;3.50;99.90;;;;;;5035602;28;20030;-74
2021/11/18 02:09:49;;;;;;;73.60;33.92;;;3.60;99.90;;;;;;5035345;28;20030;-74
2021/11/18 02:12:23;;;;;;;74.72;32.55;;;3.50;99.90;;;;;;5035435;28;20032;-73
2021/11/18 02:14:49;;;;;;;74.20;32.97;;;3.50;99.90;;;;;;5035355;28;20116;-73
2021/11/18 02:17:16;;;;;;;67.80;31.73;;;3.50;99.90;;;;;;5035239;28;20029;-73
2021/11/18 02:19:59;;;;;;;72.00;32.67;;;3.60;99.90;;;;;;5035135;28;20051;-73
2021/11/18 02:22:27;;;;;;;70.03;31.42;;;3.60;99.90;;;;;;5033997;28;20060;-73
2021/11/18 02:24:57;;;;;;;78.35;35.33;;;3.60;99.90;;;;;;5035093;28;20459;-73
2021/11/18 02:27:28;;;;;;;74.72;33.22;;;3.60;99.90;;;;;;5035203;28;20166;-73
2021/11/18 02:29:56;;;;;;;69.43;33.58;;;3.50;99.90;;;;;;5034985;28;20022;-73
2021/11/18 02:32:27;;;;;;;67.57;32.42;;;3.50;99.90;;;;;;5033746;28;20021;-73
2021/11/18 02:34:58;;;;;;;73.18;30.92;;;3.60;99.90;;;;;;5033700;28;20017;-73
2021/11/18 02:37:24;;;;;;;72.40;31.33;;;3.60;99.90;;;;;;5033601;28;20022;-73
2021/11/18 02:39:51;;;;;;;64.97;31.73;;;3.50;99.90;;;;;;5034766;28;20025;-73
2021/11/18 02:42:18;;;;;;;74.82;32.92;;;3.50;99.90;;;;;;5034875;28;20136;-73
2021/11/18 02:44:44;;;;;;;81.63;33.90;;;3.50;99.90;;;;;;5034795;28;20022;-74
2021/11/18 02:47:13;;;;;;;74.22;33.03;;;3.50;99.90;;;;;;5034745;28;20034;-73
2021/11/18 02:49:51;;;;;;;75.32;34.20;;;3.50;99.90;;;;;;5034651;28;20030;-73
2021/11/18 02:52:27;;;;;;;86.55;34.53;;;3.50;99.90;;;;;;5034678;28;20017;-73
2021/11/18 02:54:54;;;;;;;69.88;31.63;;;3.50;99.90;;;;;;5034587;28;20018;-74
2021/11/18 02:57:20;;;;;;;75.78;36.58;;;3.50;99.90;;;;;;5034499;28;20108;-73
2021/11/18 02:59:46;;;;;;;80.57;37.22;;;3.50;99.90;;;;;;5034456;28;20045;-73
2021/11/18 03:02:12;;;;;;;83.78;34.55;;;3.50;99.90;;;;;;5034448;28;20030;-73
2021/11/18 03:04:38;;;;;;;82.30;37.35;;;3.50;99.90;;;;;;5034367;28;20025;-74
2021/11/18 03:07:04;;;;;;;74.63;34.45;;;3.50;99.90;;;;;;5033130;28;20494;-73
2021/11/18 03:09:30;;;;;;;85.55;35.50;;;3.50;99.90;;;;;;5032451;28;20083;-74
2021/11/18 03:11:58;;;;;;;81.38;38.47;;;3.50;99.90;;;;;;5033972;28;20075;-73
2021/11/18 03:14:25;;;;;;;77.60;35.35;;;3.50;99.90;;;;;;5034187;28;20059;-74
2021/11/18 03:16:51;;;;;;;81.35;35.88;;;3.50;99.90;;;;;;5034213;28;20490;-74
2021/11/18 03:19:16;;;;;;;83.97;36.55;;;3.50;99.90;;;;;;5034016;28;20044;-74
2021/11/18 03:21:43;;;;;;;95.03;36.60;;;3.50;99.90;;;;;;5034123;28;20028;-73
2021/11/18 03:24:08;;;;;;;78.00;36.50;;;3.50;99.90;;;;;;5032684;28;20026;-73
2021/11/18 03:26:34;;;;;;;86.38;40.50;;;3.50;99.90;;;;;;5033940;28;20083;-73
2021/11/18 03:29:01;;;;;;;83.22;38.40;;;3.50;99.90;;;;;;5034011;28;20463;-73
2021/11/18 03:31:27;;;;;;;87.53;38.28;;;3.50;99.90;;;;;;5032540;28;20032;-73
2021/11/18 03:34:01;;;;;;;86.65;38.92;;;3.50;99.90;;;;;;5033906;28;20097;-73
2021/11/18 03:36:29;;;;;;;91.57;39.83;;;3.50;99.90;;;;;;5032485;28;20449;-73
2021/11/18 03:38:55;;;;;;;99.22;40.60;;;3.50;99.90;;;;;;5033665;28;20112;-74
2021/11/18 03:41:24;;;;;;;90.65;39.33;;;3.50;99.90;;;;;;5032726;28;20087;-73
2021/11/18 03:43:53;;;;;;;103.80;42.78;;;3.50;99.90;;;;;;5033662;28;20048;-73
2021/11/18 03:46:22;;;;;;;92.22;42.45;;;3.50;99.90;;;;;;5033587;28;20029;-74
2021/11/18 03:48:48;;;;;;;102.15;43.53;;;3.50;99.90;;;;;;5032341;28;20021;-73
2021/11/18 03:51:14;;;;;;;115.97;42.90;;;3.50;99.90;;;;;;5033493;28;20033;-73
2021/11/18 03:53:41;;;;;;;107.95;44.78;;;3.50;99.90;;;;;;5033534;28;20025;-74
2021/11/18 03:56:11;;;;;;;110.80;46.75;;;3.50;99.90;;;;;;5032177;28;20017;-73
2021/11/18 03:58:37;;;;;;;93.50;41.42;;;3.50;99.90;;;;;;5033419;28;20065;-73
2021/11/18 04:01:04;;;;;;;101.10;43.17;;;3.50;99.90;;;;;;5031919;28;20056;-73
2021/11/18 04:03:31;;;;;;;99.60;42.60;;;3.50;99.90;;;;;;5033329;28;20055;-74
2021/11/18 04:05:57;;;;;;;102.35;43.40;;;3.50;99.90;;;;;;5032246;28;20074;-74
2021/11/18 04:08:23;;;;;;;102.75;44.90;;;3.50;99.90;;;;;;5033317;28;20100;-74
2021/11/18 04:10:49;;;;;;;106.88;46.40;;;3.50;99.90;;;;;;5033294;28;20025;-74
2021/11/18 04:13:16;;;;;;;92.78;40.45;;;3.50;99.90;;;;;;5033196;28;20025;-73
2021/11/18 04:15:43;;;;;;;104.88;44.85;;;3.50;99.90;;;;;;5031845;28;20037;-73
2021/11/18 04:18:09;;;;;;;96.55;44.17;;;3.50;99.90;;;;;;5032954;28;20061;-74
2021/11/18 04:20:36;;;;;;;104.45;44.25;;;3.50;99.90;;;;;;5032777;28;20025;-73
2021/11/18 04:23:04;;;;;;;105.13;43.95;;;3.60;99.90;;;;;;5032239;28;20031;-73
2021/11/18 04:25:33;;;;;;;107.95;46.55;;;3.60;99.90;;;;;;5032916;28;20091;-73
2021/11/18 04:27:59;;;;;;;99.13;44.50;;;3.50;99.90;;;;;;5032895;28;20026;-73
2021/11/18 04:30:34;;;;;;;109.15;44.88;;;3.60;99.90;;;;;;5032898;28;20375;-73
2021/11/18 04:32:59;;;;;;;103.40;45.03;;;3.60;99.90;;;;;;5031673;28;20463;-73
2021/11/18 04:35:25;;;;;;;92.90;40.42;;;3.60;99.90;;;;;;5032858;28;20144;-73
2021/11/18 04:37:51;;;;;;;87.05;41.05;;;3.60;99.90;;;;;;5032764;28;20037;-73
2021/11/18 04:40:18;;;;;;;84.30;39.30;;;3.60;99.90;;;;;;5031486;28;20083;-73
2021/11/18 04:42:44;;;;;;;96.80;41.90;;;3.60;99.90;;;;;;5032854;28;20013;-73
2021/11/18 04:45:12;;;;;;;87.78;38.08;;;3.60;99.90;;;;;;5032783;28;20037;-73
2021/11/18 04:47:38;;;;;;;76.53;32.72;;;3.60;99.90;;;;;;5031505;28;20120;-74
2021/11/18 04:50:05;;;;;;;87.38;37.05;;;3.60;99.90;;;;;;5032725;28;20506;-73
2021/11/18 04:52:31;;;;;;;79.18;35.30;;;3.60;99.90;;;;;;5021702;28;20019;-73
2021/11/18 04:54:56;;;;;;;79.18;34.63;;;3.60;99.90;;;;;;5026332;28;20029;-73
2021/11/18 04:57:28;;;;;;;81.32;38.85;;;3.60;99.90;;;;;;5024784;28;20030;-73
2021/11/18 04:59:56;;;;;;;82.78;34.42;;;3.60;99.90;;;;;;5012836;28;20018;-73
2021/11/18 05:02:24;;;;;;;77.68;32.35;;;3.70;99.90;;;;;;5012880;28;20021;-73
2021/11/18 05:04:50;;;;;;;65.68;31.13;;;3.60;99.90;;;;;;5012913;28;20029;-73
2021/11/18 05:07:19;;;;;;;59.65;29.80;;;3.60;99.90;;;;;;5012978;28;20603;-73
2021/11/18 05:09:47;;;;;;;53.63;27.45;;;3.70;99.90;;;;;;5022778;28;20026;-73
2021/11/18 05:12:12;;;;;;;62.53;27.42;;;3.60;99.90;;;;;;5032391;28;20490;-73
2021/11/18 05:14:38;;;;;;;58.75;27.33;;;3.70;99.90;;;;;;5032472;28;20125;-74
2021/11/18 05:17:04;;;;;;;53.47;26.52;;;3.70;99.90;;;;;;5032545;28;20046;-74
2021/11/18 05:19:31;;;;;;;52.85;24.92;;;3.70;99.90;;;;;;5032505;28;20049;-74
2021/11/18 05:21:57;;;;;;;45.45;22.00;;;3.70;99.90;;;;;;5031282;28;20018;-73
2021/11/18 05:24:23;;;;;;;49.70;24.73;;;3.70;99.90;;;;;;5032181;28;20113;-73
2021/11/18 05:26:48;;;;;;;51.05;22.05;;;3.70;99.90;;;;;;5032426;28;20025;-73
2021/11/18 05:29:14;;;;;;;47.72;24.65;;;3.70;99.90;;;;;;5032394;28;20530;-74
2021/11/18 05:31:40;;;;;;;46.75;22.67;;;3.70;99.90;;;;;;5032360;28;20021;-74
2021/11/18 05:34:06;;;;;;;50.72;22.33;;;3.70;99.90;;;;;;5021500;28;20059;-74
2021/11/18 05:36:31;;;;;;;52.28;24.00;;;3.70;99.90;;;;;;5016155;28;20060;-74
2021/11/18 05:38:57;;;;;;;47.83;22.67;;;3.70;99.90;;;;;;5012921;28;20496;-73
2021/11/18 05:41:23;;;;;;;53.50;23.33;;;3.70;99.90;;;;;;5029610;28;20021;-73
2021/11/18 05:43:50;;;;;;;52.67;24.05;;;3.70;99.90;;;;;;5035682;28;20056;-73
2021/11/18 05:46:18;;;;;;;66.07;30.75;;;3.70;99.90;;;;;;5035643;28;20021;-74
2021/11/18 05:48:44;;;;;;;63.30;29.45;;;3.70;99.90;;;;;;5033390;28;20022;-73
2021/11/18 05:51:12;;;;;;;50.97;26.30;;;3.70;99.90;;;;;;5033902;28;20017;-74
2021/11/18 05:53:42;;;;;;;68.50;32.67;;;3.70;99.90;;;;;;5033513;28;20108;-74
2021/11/18 05:56:11;;;;;;;145.48;79.68;;;3.70;99.90;;;;;;5033693;28;20112;-74
2021/11/18 05:58:39;;;;;;;136.93;70.30;;;3.70;99.90;;;;;;5034367;28;20033;-74
2021/11/18 06:01:06;;;;;;;137.43;69.55;;;3.70;99.90;;;;;;5033232;28;20024;-74
2021/11/18 06:03:33;;;;;;;172.05;89.28;;;3.70;99.90;;;;;;5035092;28;20033;-74
2021/11/18 06:05:59;;;;;;;196.23;97.15;;;3.70;99.90;;;;;;5035448;28;20033;-74
2021/11/18 06:08:25;;;;;;;108.65;48.20;;;3.70;99.90;;;;;;5035485;28;20029;-74
2021/11/18 06:10:50;;;;;;;100.40;41.17;;;3.70;99.90;;;;;;5035654;28;20410;-74
2021/11/18 06:13:17;;;;;;;78.78;33.13;;;3.70;99.90;;;;;;5035439;28;20029;-74
2021/11/18 06:15:43;;;;;;;66.80;33.40;;;3.80;99.90;;;;;;5026417;28;20026;-74
2021/11/18 06:18:08;;;;;;;63.58;28.95;;;3.70;99.90;;;;;;5015193;28;20092;-73
2021/11/18 06:20:34;;;;;;;69.25;31.60;;;3.70;99.90;;;;;;5015183;28;20080;-73
2021/11/18 06:23:00;;;;;;;70.45;31.42;;;3.70;99.90;;;;;;5014013;28;20018;-74
2021/11/18 06:25:28;;;;;;;70.13;32.08;;;3.70;99.90;;;;;;5013906;28;20022;-73
2021/11/18 06:27:54;;;;;;;104.05;49.10;;;3.70;99.90;;;;;;5015055;28;20044;-74
2021/11/18 06:30:31;;;;;;;133.75;65.22;;;3.70;99.90;;;;;;5014714;28;20054;-74
2021/11/18 06:32:57;;;;;;;105.53;44.70;;;3.80;99.90;;;;;;5015157;28;20105;-74
2021/11/18 06:35:23;;;;;;;100.60;44.95;;;3.80;99.90;;;;;;5015020;28;20494;-74
2021/11/18 06:37:50;;;;;;;91.63;39.45;;;3.80;99.90;;;;;;5014233;28;20376;-73
2021/11/18 06:40:18;;;;;;;76.88;39.50;;;3.80;99.90;;;;;;5014734;28;20026;-74
2021/11/18 06:42:45;;;;;;;91.80;40.20;;;3.80;99.90;;;;;;5014926;28;20029;-74
2021/11/18 06:45:14;;;;;;;78.45;34.60;;;3.90;99.90;;;;;;5028696;28;20025;-74
2021/11/18 06:47:39;;;;;;;81.88;38.20;;;3.80;99.90;;;;;;5032465;28;20021;-74
2021/11/18 06:50:06;;;;;;;93.40;41.05;;;3.90;99.90;;;;;;5033490;28;20034;-74
2021/11/18 06:52:31;;;;;;;107.32;55.83;;;3.90;99.90;;;;;;5033577;28;20112;-73
2021/11/18 06:54:57;;;;;;;109.95;47.90;;;3.90;99.90;;;;;;5034284;28;20076;-73
2021/11/18 06:57:23;;;;;;;100.53;41.28;;;4.00;99.90;;;;;;5033345;28;20075;-73
2021/11/18 06:59:49;;;;;;;85.75;38.22;;;4.00;99.90;;;;;;5033093;28;20056;-73
2021/11/18 07:02:16;;;;;;;82.63;35.70;;;4.00;99.90;;;;;;5034140;28;20104;-73
2021/11/18 07:04:43;;;;;;;82.05;36.13;;;4.10;99.90;;;;;;5032913;28;20026;-73
2021/11/18 07:07:09;;;;;;;87.95;39.45;;;4.10;99.90;;;;;;5032878;28;20022;-73
2021/11/18 07:09:37;;;;;;;87.95;42.67;;;4.10;99.90;;;;;;5033462;28;20030;-73
2021/11/18 07:12:05;;;;;;;91.82;44.20;;;4.10;99.90;;;;;;5031979;28;20022;-74
2021/11/18 07:14:31;;;;;;;101.65;46.05;;;4.10;99.90;;;;;;5031938;28;20029;-74
2021/11/18 07:16:57;;;;;;;111.85;49.90;;;4.10;99.90;;;;;;5033975;28;20026;-74
2021/11/18 07:19:23;;;;;;;108.40;51.25;;;4.10;99.90;;;;;;5032479;28;20037;-74
2021/11/18 07:21:48;;;;;;;129.05;57.88;;;4.10;99.90;;;;;;5033647;28;20530;-74
2021/11/18 07:24:14;;;;;;;113.65;54.90;;;4.10;99.90;;;;;;5033019;28;20101;-74
2021/11/18 07:26:40;;;;;;;119.30;51.05;;;4.10;99.90;;;;;;5030505;28;20026;-73
2021/11/18 07:29:07;;;;;;;140.50;57.78;;;4.10;99.90;;;;;;5031417;28;20038;-74
2021/11/18 07:31:33;;;;;;;130.25;54.28;;;4.10;99.90;;;;;;5030276;28;20031;-74
2021/11/18 07:33:59;;;;;;;130.70;58.28;;;4.10;99.90;;;;;;5030849;28;20021;-74
2021/11/18 07:36:24;;;;;;;103.47;50.25;;;4.10;99.90;;;;;;5031960;28;20017;-74
2021/11/18 07:38:50;;;;;;;112.45;47.22;;;4.10;99.90;;;;;;5031737;28;20469;-74
2021/11/18 07:41:16;;;;;;;108.53;50.00;;;4.10;99.90;;;;;;5033305;28;20029;-74
2021/11/18 07:43:44;;;;;;;109.72;52.08;;;4.00;99.90;;;;;;5033553;28;20068;-74
2021/11/18 07:46:13;;;;;;;98.65;47.28;;;4.00;99.90;;;;;;5033567;28;20550;-73
2021/11/18 07:48:40;;;;;;;88.82;41.38;;;4.10;99.90;;;;;;5028274;28;20021;-74
2021/11/18 07:51:06;;;;;;;89.55;44.92;;;4.10;99.90;;;;;;5030402;28;20032;-74
2021/11/18 07:53:32;;;;;;;89.75;43.00;;;4.10;99.90;;;;;;5030671;28;20021;-74
2021/11/18 07:55:58;;;;;;;68.85;35.95;;;4.10;99.90;;;;;;5030833;28;20036;-74
2021/11/18 07:58:24;;;;;;;72.28;36.53;;;4.10;99.90;;;;;;5030105;28;20041;-74
2021/11/18 08:00:51;;;;;;;78.32;36.03;;;4.10;99.90;;;;;;5030637;28;20390;-74
2021/11/18 08:03:17;;;;;;;69.78;36.50;;;4.20;99.90;;;;;;5031047;28;20029;-72
2021/11/18 08:05:43;;;;;;;66.18;34.83;;;4.30;99.90;;;;;;5033269;28;20049;-73
2021/11/18 08:08:09;;;;;;;66.75;34.85;;;4.30;99.90;;;;;;5033202;28;20061;-74
2021/11/18 08:10:36;;;;;;;63.20;32.20;;;4.30;99.90;;;;;;5033362;28;20036;-73
2021/11/18 08:13:02;;;;;;;61.33;33.67;;;4.30;99.90;;;;;;5033441;28;20064;-73
2021/11/18 08:15:29;;;;;;;69.50;32.20;;;4.40;99.90;;;;;;5030441;28;20033;-74
2021/11/18 08:17:55;;;;;;;57.60;29.35;;;4.40;99.90;;;;;;5032288;28;20048;-74
2021/11/18 08:20:22;;;;;;;57.50;28.17;;;4.40;99.90;;;;;;5032848;28;20026;-73
2021/11/18 08:22:49;;;;;;;68.78;35.40;;;4.40;99.90;;;;;;5033030;28;20156;-73
2021/11/18 08:25:17;;;;;;;62.15;29.48;;;4.40;99.90;;;;;;5032640;28;20037;-73
2021/11/18 08:27:43;;;;;;;56.13;26.38;;;4.40;99.90;;;;;;5032953;28;20100;-73
2021/11/18 08:30:17;;;;;;;43.75;21.23;;;4.40;99.90;;;;;;5032553;28;20033;-73
2021/11/18 08:32:44;;;;;;;48.28;24.95;;;4.40;99.90;;;;;;5032959;28;20101;-73
2021/11/18 08:35:11;;;;;;;42.53;23.05;;;4.50;99.90;;;;;;5031550;28;20057;-74
2021/11/18 08:37:37;;;;;;;45.78;23.00;;;4.50;99.90;;;;;;5032819;28;20075;-74
2021/11/18 08:40:05;;;;;;;49.28;23.65;;;4.50;99.90;;;;;;5031605;28;20497;-74
2021/11/18 08:42:30;;;;;;;39.05;20.70;;;4.50;99.90;;;;;;5031394;28;20018;-74
2021/11/18 08:44:56;;;;;;;40.78;20.25;;;4.50;99.90;;;;;;5032681;28;20456;-74
2021/11/18 08:47:23;;;;;;;46.67;22.33;;;4.50;99.90;;;;;;5032820;28;20021;-74
2021/11/18 08:49:50;;;;;;;40.60;20.73;;;4.50;99.90;;;;;;5030702;28;20487;-74
2021/11/18 08:52:21;;;;;;;45.75;18.88;;;4.60;99.90;;;;;;5030425;28;20049;-74
2021/11/18 08:54:51;;;;;;;47.88;22.02;;;4.60;99.90;;;;;;5028986;28;20025;-74
2021/11/18 08:57:18;;;;;;;43.95;21.17;;;4.60;99.90;;;;;;5032200;28;20079;-74
2021/11/18 08:59:44;;;;;;;46.13;22.88;;;4.70;99.90;;;;;;5032094;28;20026;-73
2021/11/18 09:02:17;;;;;;;42.15;20.08;;;4.70;99.90;;;;;;5032455;28;20490;-74
2021/11/18 09:04:43;;;;;;;40.35;21.35;;;4.70;99.90;;;;;;5032596;28;20026;-74
2021/11/18 09:07:09;;;;;;;34.42;18.00;;;4.80;99.90;;;;;;5032630;28;20028;-74
2021/11/18 09:09:34;;;;;;;43.00;19.88;;;4.80;99.90;;;;;;5035316;28;20061;-74
2021/11/18 09:12:02;;;;;;;46.35;20.25;;;4.90;99.90;;;;;;5036623;28;20033;-74
2021/11/18 09:14:31;;;;;;;41.22;18.63;;;4.90;99.90;;;;;;5035707;28;20018;-74
2021/11/18 09:16:57;;;;;;;41.08;20.58;;;4.90;99.90;;;;;;5034446;28;20044;-74
2021/11/18 09:19:26;;;;;;;37.13;17.40;;;4.90;99.90;;;;;;5034256;28;20459;-74
2021/11/18 09:21:53;;;;;;;30.65;17.10;;;5.00;99.90;;;;;;5034696;28;20561;-74
2021/11/18 09:24:30;;;;;;;30.52;15.48;;;5.00;99.90;;;;;;5034245;28;20029;-74
2021/11/18 09:27:05;;;;;;;34.08;14.60;;;5.10;99.90;;;;;;5032948;28;20483;-74
2021/11/18 09:29:31;;;;;;;31.52;16.13;;;5.10;99.90;;;;;;5033291;28;20493;-74
2021/11/18 09:31:58;;;;;;;30.02;15.25;;;5.10;99.90;;;;;;5036258;28;20026;-74
2021/11/18 09:34:25;;;;;;;35.92;16.50;;;5.10;99.90;;;;;;5036079;28;20021;-74
2021/11/18 09:36:51;;;;;;;27.45;13.45;;;5.20;99.90;;;;;;5036090;28;20024;-74
2021/11/18 09:39:17;;;;;;;27.85;13.90;;;5.20;99.90;;;;;;5034685;28;20033;-74
2021/11/18 09:42:03;;;;;;;33.00;15.23;;;5.20;99.90;;;;;;5034796;28;20032;-74
2021/11/18 09:44:31;;;;;;;31.92;12.65;;;5.20;99.90;;;;;;5035994;28;20029;-74
2021/11/18 09:47:05;;;;;;;28.23;12.93;;;5.30;99.90;;;;;;5034659;28;20022;-74
2021/11/18 09:49:43;;;;;;;27.20;13.52;;;5.30;99.90;;;;;;5035841;28;20033;-74
2021/11/18 09:52:45;;;;;;;24.85;14.07;;;5.40;99.90;;;;;;5035861;28;20033;-74
2021/11/18 09:55:31;;;;;;;27.40;13.60;;;5.50;99.90;;;;;;5035754;28;20057;-74
2021/11/18 09:58:25;;;;;;;26.65;12.38;;;5.60;99.90;;;;;;5035684;28;20048;-74
2021/11/18 10:01:02;;;;;;;;;;;5.60;99.90;;;;;;5034763;28;20037;-74
2021/11/18 10:03:50;;;;;;;21.00;11.93;;;5.60;99.90;;;;;;5035687;28;20374;-74
2021/11/18 10:06:31;;;;;;;20.15;11.23;;;5.70;99.90;;;;;;5035598;28;20025;-74
2021/11/18 10:09:17;;;;;;;21.92;12.43;;;5.70;99.90;;;;;;5035501;28;20108;-74
2021/11/18 10:12:01;;;;;;;25.55;13.88;;;5.70;99.90;;;;;;5035481;28;20029;-74
2021/11/18 10:14:44;;;;;;;20.92;11.75;;;5.60;99.90;;;;;;5035320;28;20475;-74
2021/11/18 10:17:09;;;;;;;;;;;5.60;99.90;;;;;;5035803;28;20032;-74
2021/11/18 10:19:41;;;;;;;24.17;12.25;;;5.60;99.90;;;;;;5033138;28;19917;-74
2021/11/18 10:22:10;;;;;;;27.00;11.85;;;5.60;99.90;;;;;;5035016;28;20104;-74
2021/11/18 10:24:38;;;;;;;24.80;12.10;;;5.60;99.90;;;;;;5035159;28;20493;-74
2021/11/18 10:27:15;;;;;;;23.15;12.48;;;5.50;99.90;;;;;;5035145;28;20079;-74
2021/11/18 10:30:01;;;;;;;25.33;11.77;;;5.50;99.90;;;;;;5034989;28;20116;-74
2021/11/18 10:32:30;;;;;;;28.67;13.15;;;5.50;99.90;;;;;;5035167;28;20029;-74
2021/11/18 10:35:00;;;;;;;23.15;11.98;;;5.50;99.90;;;;;;5034906;28;20032;-74
2021/11/18 10:37:38;;;;;;;21.77;13.13;;;5.50;99.90;;;;;;5034922;28;20034;-74
2021/11/18 10:40:19;;;;;;;23.63;12.90;;;5.50;99.90;;;;;;5034857;28;20071;-74
2021/11/18 10:42:49;;;;;;;25.98;12.57;;;5.50;99.90;;;;;;5019904;28;20553;-74
2021/11/18 10:45:27;;;;;;;23.50;11.77;;;5.50;99.90;;;;;;5015018;28;20026;-74
2021/11/18 10:47:55;;;;;;;22.98;11.60;;;5.50;99.90;;;;;;5017202;28;20108;-74
2021/11/18 10:50:35;;;;;;;23.73;12.35;;;5.50;99.90;;;;;;5034606;28;20564;-74
2021/11/18 10:53:11;;;;;;;22.75;11.85;;;5.60;99.90;;;;;;5034843;28;20021;-74
2021/11/18 10:55:39;;;;;;;58.38;32.88;;;5.60;99.90;;;;;;5034507;28;20025;-74
2021/11/18 10:58:06;;;;;;;27.27;15.35;;;5.60;99.90;;;;;;5034516;28;20108;-74
2021/11/18 11:00:41;;;;;;;23.83;11.77;;;5.60;99.90;;;;;;5034447;28;20025;-74
2021/11/18 11:03:38;;;;;;;23.05;11.77;;;5.60;99.90;;;;;;5034522;28;20025;-74
2021/11/18 11:06:47;;;;;;;22.85;11.30;;;5.60;99.90;;;;;;5034429;28;20076;-74
2021/11/18 11:09:21;;;;;;;20.23;10.35;;;5.60;99.90;;;;;;5032102;28;20045;-74
2021/11/18 11:12:02;;;;;;;20.63;10.73;;;5.60;99.90;;;;;;5023102;28;20534;-74
2021/11/18 11:15:02;;;;;;;20.55;11.02;;;5.60;99.90;;;;;;5034367;28;20025;-74
2021/11/18 11:18:05;;;;;;;20.10;10.48;;;5.50;99.90;;;;;;5010986;28;20033;-74
2021/11/18 11:21:17;;;;;;;20.10;11.20;;;5.50;99.90;;;;;;5034167;28;20022;-74
2021/11/18 11:24:04;;;;;;;18.15;10.13;;;5.50;99.90;;;;;;5028839;28;20044;-74
2021/11/18 11:27:21;;;;;;;24.45;11.57;;;5.50;99.90;;;;;;5034084;28;20108;-74
2021/11/18 11:29:53;;;;;;;24.98;12.05;;;5.60;99.90;;;;;;5011980;28;20042;-74
2021/11/18 11:32:24;;;;;;;29.13;13.90;;;5.60;99.90;;;;;;5032676;28;20034;-74
2021/11/18 11:35:16;;;;;;;27.67;12.20;;;5.60;99.90;;;;;;5033907;28;20363;-74
2021/11/18 11:38:10;;;;;;;22.92;11.73;;;5.60;99.90;;;;;;5027028;28;20064;-74
2021/11/18 11:41:12;;;;;;;22.50;12.45;;;5.60;99.90;;;;;;5032474;28;20029;-74
2021/11/18 11:43:47;;;;;;;29.13;12.95;;;5.60;99.90;;;;;;5034050;28;20531;-74
2021/11/18 11:46:41;;;;;;;24.60;11.85;;;5.60;99.90;;;;;;5033632;28;20021;-74
2021/11/18 11:49:41;;;;;;;27.90;13.05;;;5.60;99.90;;;;;;5032366;28;20029;-74
2021/11/18 11:52:23;;;;;;;24.38;13.85;;;5.70;99.90;;;;;;5033686;28;20100;-74
2021/11/18 11:55:00;;;;;;;24.20;11.73;;;5.70;99.90;;;;;;5031716;28;20026;-74
2021/11/18 11:57:44;;;;;;;23.52;12.38;;;5.70;99.90;;;;;;5031919;28;20491;-74
2021/11/18 12:00:20;;;;;;;35.85;13.40;;;5.70;99.90;;;;;;5033391;28;20057;-74
2021/11/18 12:03:08;;;;;;;20.17;11.88;;;5.70;99.90;;;;;;5033472;28;20022;-74
2021/11/18 12:05:54;;;;;;;25.23;12.30;;;5.70;99.90;;;;;;5033378;28;20058;-74
2021/11/18 12:08:35;;;;;;;22.30;13.02;;;5.80;99.90;;;;;;5033378;28;20028;-74
2021/11/18 12:11:19;;;;;;;26.08;11.55;;;5.90;99.90;;;;;;5032181;28;20030;-74
2021/11/18 12:13:57;;;;;;;24.33;11.23;;;6.00;99.90;;;;;;5032007;28;20032;-74
2021/11/18 12:16:36;;;;;;;22.30;9.88;;;6.00;99.90;;;;;;5033245;28;20026;-74
2021/11/18 12:19:35;;;;;;;22.83;11.70;;;6.10;99.90;;;;;;5033102;28;20025;-74
2021/11/18 12:22:21;;;;;;;21.80;11.27;;;6.10;99.90;;;;;;5033134;28;20517;-74
2021/11/18 12:25:05;;;;;;;20.77;11.07;;;6.10;99.90;;;;;;5032852;28;20045;-74
2021/11/18 12:27:34;;;;;;;21.75;10.18;;;6.10;99.90;;;;;;5033104;28;20030;-74
2021/11/18 12:30:32;;;;;;;27.85;12.10;;;6.10;99.90;;;;;;5031486;28;20020;-74
2021/11/18 12:33:05;;;;;;;47.45;19.00;;;6.10;99.90;;;;;;5032944;28;20021;-74
2021/11/18 12:35:43;;;;;;;51.50;19.98;;;6.10;99.90;;;;;;5031618;28;20470;-74
2021/11/18 12:38:34;;;;;;;23.90;11.10;;;6.10;99.90;;;;;;5032851;28;20068;-74
2021/11/18 12:41:12;;;;;;;31.13;13.65;;;6.10;99.90;;;;;;5032854;28;20029;-74
2021/11/18 12:43:59;;;;;;;20.45;10.80;;;6.00;99.90;;;;;;5032254;28;20029;-74
2021/11/18 12:46:52;;;;;;;30.48;13.55;;;6.00;99.90;;;;;;5032769;28;20028;-74
2021/11/18 12:49:25;;;;;;;19.48;10.80;;;6.00;99.90;;;;;;5031329;28;20383;-74
2021/11/18 12:52:17;;;;;;;48.95;23.75;;;6.00;99.90;;;;;;5032847;28;20100;-74
2021/11/18 12:55:08;;;;;;;29.45;14.90;;;6.00;99.90;;;;;;5032723;28;20024;-74